createdAt,value
2018-10-11T00:01:58.443Z,52.50
2018-10-11T00:04:26.748Z,51.40
2018-10-11T00:06:55.036Z,51.11
2018-10-11T00:09:23.354Z,51.34
2018-10-11T00:11:51.675Z,51.43
2018-10-11T00:14:19.936Z,51.02
2018-10-11T00:16:48.263Z,51.84
2018-10-11T00:19:16.683Z,51.26
2018-10-11T00:21:44.992Z,51.92
2018-10-11T00:24:13.319Z,51.75
2018-10-11T00:26:41.780Z,51.96
2018-10-11T00:29:10.199Z,52.05
2018-10-11T00:31:38.488Z,52.31
2018-10-11T00:34:06.837Z,51.47
2018-10-11T00:36:35.124Z,50.82
2018-10-11T00:39:05.354Z,51.49
2018-10-11T00:41:33.649Z,51.33
2018-10-11T00:44:02.024Z,51.73
2018-10-11T00:46:30.435Z,51.55
2018-10-11T00:48:58.750Z,51.64
2018-10-11T00:51:27.090Z,51.56
2018-10-11T00:53:55.434Z,51.65
2018-10-11T00:56:23.748Z,52.32
2018-10-11T00:58:52.049Z,51.53
2018-10-11T01:01:20.566Z,51.77
2018-10-11T01:03:48.856Z,51.07
2018-10-11T01:06:17.328Z,52.01
2018-10-11T01:08:45.672Z,52.27
2018-10-11T01:11:14.141Z,52.33
2018-10-11T01:13:42.580Z,52.40
2018-10-11T01:16:10.921Z,52.45
2018-10-11T01:18:39.246Z,52.06
2018-10-11T01:21:07.669Z,52.86
2018-10-11T01:23:36.245Z,52.89
2018-10-11T01:26:04.532Z,53.54
2018-10-11T01:28:33.085Z,52.70
2018-10-11T01:31:06.639Z,52.76
2018-10-11T01:33:34.914Z,53.05
2018-10-11T01:36:03.366Z,53.83
2018-10-11T01:38:31.631Z,54.61
2018-10-11T01:40:59.954Z,53.31
2018-10-11T01:43:28.353Z,53.70
2018-10-11T01:45:56.605Z,53.96
2018-10-11T01:48:25.613Z,53.95
2018-10-11T01:50:53.890Z,53.09
2018-10-11T01:53:22.235Z,54.54
2018-10-11T01:55:50.556Z,53.97
2018-10-11T01:58:18.841Z,54.58
2018-10-11T02:00:47.130Z,53.49
2018-10-11T02:03:15.519Z,53.78
2018-10-11T02:05:43.833Z,53.28
2018-10-11T02:08:12.224Z,53.87
2018-10-11T02:10:40.554Z,52.48
2018-10-11T02:13:08.822Z,52.21
2018-10-11T02:15:37.111Z,53.60
2018-10-11T02:18:05.557Z,54.12
2018-10-11T02:20:33.836Z,54.62
2018-10-11T02:23:02.211Z,53.17
2018-10-11T02:25:30.544Z,52.48
2018-10-11T02:27:58.947Z,52.89
2018-10-11T02:30:27.474Z,53.25
2018-10-11T02:32:55.845Z,53.24
2018-10-11T02:35:24.209Z,53.70
2018-10-11T02:37:52.528Z,52.98
2018-10-11T02:40:20.878Z,52.50
2018-10-11T02:42:49.189Z,52.80
2018-10-11T02:45:17.443Z,52.95
2018-10-11T02:47:45.760Z,52.74
2018-10-11T02:50:14.286Z,52.95
2018-10-11T02:52:42.580Z,53.16
2018-10-11T02:55:17.293Z,54.47
2018-10-11T02:57:56.793Z,54.21
2018-10-11T03:00:25.088Z,52.70
2018-10-11T03:02:53.502Z,52.35
2018-10-11T03:05:21.828Z,54.26
2018-10-11T03:07:50.362Z,52.90
2018-10-11T03:10:18.620Z,53.28
2018-10-11T03:12:46.917Z,52.75
2018-10-11T03:15:15.324Z,53.61
2018-10-11T03:17:43.625Z,53.16
2018-10-11T03:20:11.946Z,53.62
2018-10-11T03:22:40.280Z,52.77
2018-10-11T03:25:08.736Z,52.43
2018-10-11T03:27:37.160Z,53.46
2018-10-11T03:30:05.541Z,53.36
2018-10-11T03:32:33.855Z,52.62
2018-10-11T03:35:02.132Z,53.07
2018-10-11T03:37:30.615Z,53.19
2018-10-11T03:39:58.862Z,53.12
2018-10-11T03:42:27.227Z,53.42
2018-10-11T03:44:55.527Z,53.10
2018-10-11T03:47:23.922Z,53.39
2018-10-11T03:49:52.234Z,53.35
2018-10-11T03:52:20.542Z,52.78
2018-10-11T03:54:48.912Z,53.08
2018-10-11T03:57:17.220Z,53.11
2018-10-11T03:59:45.481Z,53.20
2018-10-11T04:02:13.953Z,54.20
2018-10-11T04:04:42.506Z,53.28
2018-10-11T04:07:10.810Z,55.52
2018-10-11T04:09:39.081Z,53.51
2018-10-11T04:12:07.502Z,53.17
2018-10-11T04:14:35.792Z,54.08
2018-10-11T04:17:04.071Z,54.40
2018-10-11T04:19:32.628Z,54.12
2018-10-11T04:22:00.993Z,53.06
2018-10-11T04:24:29.336Z,53.27
2018-10-11T04:26:57.641Z,53.28
2018-10-11T04:29:26.300Z,53.09
2018-10-11T04:31:54.786Z,53.77
2018-10-11T04:34:23.112Z,53.02
2018-10-11T04:36:51.584Z,53.49
2018-10-11T04:39:19.921Z,53.68
2018-10-11T04:41:48.344Z,54.25
2018-10-11T04:44:16.632Z,53.68
2018-10-11T04:46:45.400Z,53.50
2018-10-11T04:49:13.809Z,54.11
2018-10-11T04:51:42.979Z,53.76
2018-10-11T04:54:11.298Z,53.91
2018-10-11T04:56:39.774Z,54.38
2018-10-11T04:59:08.280Z,55.92
2018-10-11T05:01:36.620Z,54.76
2018-10-11T05:04:04.912Z,54.77
2018-10-11T05:06:33.199Z,55.27
2018-10-11T05:09:01.585Z,54.43
2018-10-11T05:11:29.922Z,53.80
2018-10-11T05:14:00.027Z,54.00
2018-10-11T05:16:28.517Z,54.00
2018-10-11T05:18:59.746Z,55.44
2018-10-11T05:21:28.243Z,55.16
2018-10-11T05:23:56.790Z,54.85
2018-10-11T05:26:25.229Z,55.02
2018-10-11T05:28:53.700Z,54.41
2018-10-11T05:31:22.224Z,54.63
2018-10-11T05:33:51.318Z,54.78
2018-10-11T05:36:19.622Z,55.10
2018-10-11T05:38:48.034Z,53.90
2018-10-11T05:41:16.372Z,53.65
2018-10-11T05:43:44.760Z,54.60
2018-10-11T05:46:19.587Z,54.56
2018-10-11T05:48:47.874Z,54.65
2018-10-11T05:51:16.234Z,54.46
2018-10-11T05:53:44.671Z,53.83
2018-10-11T05:56:17.397Z,53.74
2018-10-11T05:58:47.056Z,52.99
2018-10-11T06:01:15.461Z,53.35
2018-10-11T06:03:44.664Z,54.43
2018-10-11T06:06:13.155Z,54.44
2018-10-11T06:08:41.502Z,54.00
2018-10-11T06:11:09.903Z,54.18
2018-10-11T06:13:38.258Z,54.55
2018-10-11T06:16:06.731Z,54.06
2018-10-11T06:18:35.071Z,55.88
2018-10-11T06:21:03.318Z,54.88
2018-10-11T06:23:31.609Z,55.82
2018-10-11T06:25:59.944Z,55.83
2018-10-11T06:28:28.227Z,54.21
2018-10-11T06:30:56.695Z,53.53
2018-10-11T06:33:24.968Z,53.29
2018-10-11T06:35:53.301Z,52.92
2018-10-11T06:38:21.856Z,52.48
2018-10-11T06:40:50.180Z,51.90
2018-10-11T06:43:18.471Z,51.39
2018-10-11T06:45:46.851Z,51.76
2018-10-11T06:48:15.198Z,51.50
2018-10-11T06:50:43.971Z,52.79
2018-10-11T06:53:12.402Z,53.83
2018-10-11T06:55:40.718Z,55.88
2018-10-11T06:58:09.000Z,56.03
2018-10-11T07:00:37.391Z,54.80
2018-10-11T07:03:05.929Z,53.73
2018-10-11T07:05:34.159Z,53.24
2018-10-11T07:08:02.465Z,52.64
2018-10-11T07:10:30.806Z,50.69
2018-10-11T07:12:59.124Z,50.05
2018-10-11T07:15:27.673Z,50.24
2018-10-11T07:17:56.133Z,50.84
2018-10-11T07:20:24.554Z,50.17
2018-10-11T07:22:52.915Z,50.34
2018-10-11T07:25:21.168Z,49.90
2018-10-11T07:27:49.475Z,51.00
2018-10-11T07:30:17.831Z,50.71
2018-10-11T07:32:46.166Z,49.69
2018-10-11T07:35:14.485Z,49.35
2018-10-11T07:37:42.887Z,50.34
2018-10-11T07:40:11.138Z,48.77
2018-10-11T07:42:39.402Z,48.50
2018-10-11T07:45:07.720Z,49.16
2018-10-11T07:47:36.152Z,48.59
2018-10-11T07:50:04.896Z,47.71
2018-10-11T07:52:33.224Z,46.58
2018-10-11T07:55:01.553Z,48.10
2018-10-11T07:57:29.920Z,47.72
2018-10-11T07:59:58.215Z,46.58
2018-10-11T08:02:26.496Z,46.20
2018-10-11T08:04:54.779Z,46.52
2018-10-11T08:07:23.243Z,45.90
2018-10-11T08:09:51.536Z,45.13
2018-10-11T08:12:19.804Z,45.23
2018-10-11T08:14:48.147Z,45.56
2018-10-11T08:17:16.912Z,45.29
2018-10-11T08:19:44.989Z,44.52
2018-10-11T08:22:13.207Z,44.46
2018-10-11T08:24:41.623Z,44.98
2018-10-11T08:27:09.999Z,45.72
2018-10-11T08:29:38.224Z,44.09
2018-10-11T08:32:06.575Z,42.98
2018-10-11T08:34:34.912Z,42.72
2018-10-11T08:37:03.236Z,43.85
2018-10-11T08:39:31.578Z,42.86
2018-10-11T08:41:59.997Z,42.48
2018-10-11T08:44:28.286Z,41.60
2018-10-11T08:46:56.660Z,43.28
2018-10-11T08:49:24.983Z,43.71
2018-10-11T08:51:53.324Z,42.23
2018-10-11T08:54:26.693Z,40.28
2018-10-11T08:56:55.004Z,40.26
2018-10-11T08:59:23.490Z,40.98
2018-10-11T09:01:51.690Z,40.98
2018-10-11T09:04:19.988Z,41.98
2018-10-11T09:06:48.293Z,41.93
2018-10-11T09:09:16.579Z,41.33
2018-10-11T09:11:44.952Z,40.91
2018-10-11T09:14:13.258Z,39.77
2018-10-11T09:16:41.647Z,40.17
2018-10-11T09:19:09.931Z,40.21
2018-10-11T09:21:38.336Z,39.04
2018-10-11T09:24:06.785Z,39.16
2018-10-11T09:26:35.088Z,39.53
2018-10-11T09:29:03.360Z,39.23
2018-10-11T09:31:31.704Z,39.28
2018-10-11T09:34:00.076Z,39.21
2018-10-11T09:36:28.430Z,38.26
2018-10-11T09:38:56.670Z,37.35
2018-10-11T09:41:25.043Z,37.58
2018-10-11T09:43:53.448Z,36.17
2018-10-11T09:46:22.035Z,37.12
2018-10-11T09:48:50.487Z,37.08
2018-10-11T09:51:18.680Z,38.07
2018-10-11T09:53:46.974Z,37.88
2018-10-11T09:56:15.360Z,36.87
2018-10-11T09:58:43.691Z,38.01
2018-10-11T10:01:17.184Z,37.18
2018-10-11T10:03:45.690Z,38.57
2018-10-11T10:06:14.008Z,36.18
2018-10-11T10:08:42.440Z,38.46
2018-10-11T10:11:10.701Z,38.14
2018-10-11T10:13:39.105Z,37.60
2018-10-11T10:16:07.456Z,36.46
2018-10-11T10:18:35.733Z,37.05
2018-10-11T10:21:04.231Z,36.41
2018-10-11T10:23:32.510Z,34.75
2018-10-11T10:26:00.872Z,33.89
2018-10-11T10:28:29.173Z,34.04
2018-10-11T10:30:57.716Z,34.44
2018-10-11T10:33:26.298Z,33.36
2018-10-11T10:35:54.656Z,33.88
2018-10-11T10:38:23.613Z,34.18
2018-10-11T10:40:52.351Z,35.75
2018-10-11T10:43:20.869Z,34.21
2018-10-11T10:45:49.390Z,32.66
2018-10-11T10:48:17.743Z,33.47
2018-10-11T10:50:46.094Z,34.63
2018-10-11T10:53:14.862Z,33.13
2018-10-11T10:55:43.332Z,32.52
2018-10-11T10:58:11.695Z,31.75
2018-10-11T11:00:40.074Z,31.49
2018-10-11T11:03:08.367Z,31.26
2018-10-11T11:05:36.667Z,31.39
2018-10-11T11:08:05.039Z,31.79
2018-10-11T11:10:33.366Z,30.97
2018-10-11T11:13:01.660Z,31.56
2018-10-11T11:15:30.267Z,30.98
2018-10-11T11:17:58.756Z,31.92
2018-10-11T11:20:27.112Z,31.31
2018-10-11T11:22:55.663Z,30.35
2018-10-11T11:25:24.212Z,29.58
2018-10-11T11:27:52.487Z,30.13
2018-10-11T11:30:20.940Z,30.01
2018-10-11T11:32:49.247Z,27.90
2018-10-11T11:35:17.705Z,28.12
2018-10-11T11:37:46.053Z,27.17
2018-10-11T11:40:14.338Z,27.08
2018-10-11T11:42:42.739Z,26.46
2018-10-11T11:45:11.067Z,24.73
2018-10-11T11:47:39.528Z,24.31
2018-10-11T11:50:08.090Z,24.10
2018-10-11T11:52:36.464Z,24.05
2018-10-11T11:55:04.840Z,23.88
2018-10-11T11:57:33.136Z,23.56
2018-10-11T12:00:01.496Z,23.81
2018-10-11T12:02:29.837Z,22.36
2018-10-11T12:04:58.117Z,20.98
2018-10-11T12:07:26.420Z,19.54
2018-10-11T12:09:54.704Z,19.00
2018-10-11T12:13:01.775Z,17.69
2018-10-11T12:15:30.921Z,16.27
2018-10-11T12:18:00.485Z,15.27
2018-10-11T12:20:30.845Z,15.04
2018-10-11T12:23:00.150Z,15.98
2018-10-11T12:25:28.963Z,15.33
2018-10-11T12:27:57.249Z,16.45
2018-10-11T12:30:25.608Z,15.88
2018-10-11T12:32:53.962Z,15.26
2018-10-11T12:35:23.266Z,15.51
2018-10-11T12:37:51.635Z,13.85
2018-10-11T12:40:20.098Z,15.08
2018-10-11T12:42:48.388Z,16.50
2018-10-11T12:45:17.314Z,14.16
2018-10-11T12:47:45.768Z,12.78
2018-10-11T12:50:14.314Z,13.64
2018-10-11T12:52:42.858Z,11.88
2018-10-11T12:55:11.361Z,13.11
2018-10-11T12:57:39.925Z,13.52
2018-10-11T13:00:09.868Z,15.15
2018-10-11T13:02:38.198Z,15.49
2018-10-11T13:05:06.616Z,17.17
2018-10-11T13:07:35.059Z,17.47
2018-10-11T13:10:03.774Z,18.14
2018-10-11T13:12:32.143Z,19.79
2018-10-11T13:15:00.476Z,18.12
2018-10-11T13:17:31.657Z,19.58
2018-10-11T13:19:57.363Z,17.83
2018-10-11T13:22:25.814Z,17.31
2018-10-11T13:24:54.176Z,16.68
2018-10-11T13:27:22.486Z,16.43
2018-10-11T13:29:51.015Z,16.05
2018-10-11T13:32:19.301Z,15.75
2018-10-11T13:34:47.775Z,16.41
2018-10-11T13:37:16.517Z,16.56
2018-10-11T13:39:52.023Z,17.34
2018-10-11T13:42:13.493Z,17.24
2018-10-11T13:44:41.942Z,17.93
2018-10-11T13:47:10.386Z,18.83
2018-10-11T13:49:38.779Z,18.56
2018-10-11T13:52:07.232Z,19.32
2018-10-11T13:54:35.665Z,19.62
2018-10-11T13:57:04.028Z,18.73
2018-10-11T13:59:32.366Z,19.87
2018-10-11T14:02:00.709Z,18.83
2018-10-11T14:04:29.036Z,19.53
2018-10-11T14:06:57.294Z,19.88
2018-10-11T14:09:25.696Z,20.83
2018-10-11T14:11:53.990Z,21.03
2018-10-11T14:14:22.664Z,21.01
2018-10-11T14:16:50.939Z,20.47
2018-10-11T14:19:19.309Z,22.01
2018-10-11T14:21:47.752Z,22.30
2018-10-11T14:24:16.214Z,22.53
2018-10-11T14:26:44.452Z,22.66
2018-10-11T14:29:12.767Z,22.67
2018-10-11T14:31:41.167Z,22.48
2018-10-11T14:34:09.873Z,22.91
2018-10-11T14:36:38.199Z,21.49
2018-10-11T14:39:07.596Z,21.30
2018-10-11T14:41:36.080Z,20.80
2018-10-11T14:44:04.905Z,21.67
2018-10-11T14:46:33.180Z,21.20
2018-10-11T14:49:01.483Z,21.81
2018-10-11T14:51:29.989Z,21.53
2018-10-11T14:53:59.565Z,21.79
2018-10-11T14:56:26.688Z,21.58
2018-10-11T14:58:54.962Z,21.60
2018-10-11T15:01:23.263Z,22.45
2018-10-11T15:03:52.614Z,22.99
2018-10-11T15:06:20.950Z,23.15
2018-10-11T15:08:49.282Z,23.87
2018-10-11T15:11:17.718Z,24.22
2018-10-11T15:13:45.943Z,24.63
2018-10-11T15:16:14.408Z,24.08
2018-10-11T15:18:42.691Z,24.25
2018-10-11T15:21:10.973Z,24.93
2018-10-11T15:23:39.328Z,25.54
2018-10-11T15:26:07.644Z,25.96
2018-10-11T15:28:36.281Z,26.37
2018-10-11T15:31:04.544Z,26.53
2018-10-11T15:33:32.942Z,26.65
2018-10-11T15:36:01.424Z,27.10
2018-10-11T15:38:29.860Z,27.00
2018-10-11T15:40:58.116Z,27.52
2018-10-11T15:43:26.525Z,27.13
2018-10-11T15:45:54.890Z,27.50
2018-10-11T15:48:23.195Z,27.85
2018-10-11T15:50:51.481Z,28.12
2018-10-11T15:53:19.868Z,28.54
2018-10-11T15:55:48.196Z,28.87
2018-10-11T15:58:16.443Z,29.02
2018-10-11T16:00:44.739Z,29.55
2018-10-11T16:03:13.076Z,28.98
2018-10-11T16:05:41.632Z,29.26
2018-10-11T16:08:09.715Z,29.33
2018-10-11T16:10:38.028Z,29.71
2018-10-11T16:13:06.340Z,30.61
2018-10-11T16:15:34.777Z,30.05
2018-10-11T16:18:03.108Z,30.14
2018-10-11T16:20:31.438Z,30.48
2018-10-11T16:22:59.740Z,30.25
2018-10-11T16:25:28.207Z,30.65
2018-10-11T16:27:56.639Z,30.88
2018-10-11T16:30:25.049Z,31.12
2018-10-11T16:32:53.364Z,31.37
2018-10-11T16:35:21.719Z,31.04
2018-10-11T16:37:49.974Z,30.87
2018-10-11T16:40:18.248Z,30.90
2018-10-11T16:42:46.572Z,31.39
2018-10-11T16:45:14.964Z,31.29
2018-10-11T16:47:43.473Z,31.03
2018-10-11T16:50:11.858Z,31.21
2018-10-11T16:52:40.139Z,31.67
2018-10-11T16:55:08.440Z,31.53
2018-10-11T16:57:36.781Z,31.64
2018-10-11T17:00:05.476Z,31.99
2018-10-11T17:02:33.886Z,31.85
2018-10-11T17:05:02.257Z,31.82
2018-10-11T17:07:30.698Z,32.04
2018-10-11T17:09:59.097Z,31.77
2018-10-11T17:12:27.358Z,32.05
2018-10-11T17:14:55.834Z,32.11
2018-10-11T17:17:24.144Z,32.52
2018-10-11T17:19:52.846Z,32.81
2018-10-11T17:23:23.882Z,32.92
2018-10-11T17:25:52.264Z,33.84
2018-10-11T17:28:21.003Z,32.87
2018-10-11T17:30:49.285Z,34.16
2018-10-11T17:33:17.643Z,33.55
2018-10-11T17:35:46.070Z,32.78
2018-10-11T17:38:14.480Z,33.03
2018-10-11T17:40:42.811Z,33.55
2018-10-11T17:43:11.133Z,33.30
2018-10-11T17:45:39.545Z,34.30
2018-10-11T17:48:07.978Z,34.17
2018-10-11T17:50:36.440Z,33.93
2018-10-11T17:53:05.362Z,34.09
2018-10-11T17:55:34.289Z,34.06
2018-10-11T17:59:31.925Z,34.73
2018-10-11T18:02:00.281Z,35.13
2018-10-11T18:04:28.680Z,35.49
2018-10-11T18:06:56.988Z,36.61
2018-10-11T18:09:25.584Z,36.06
2018-10-11T18:11:53.864Z,36.02
2018-10-11T18:14:22.935Z,36.09
2018-10-11T18:16:51.267Z,35.94
2018-10-11T18:19:19.505Z,37.82
2018-10-11T18:21:47.930Z,37.58
2018-10-11T18:24:16.168Z,37.64
2018-10-11T18:26:44.648Z,37.65
2018-10-11T18:29:13.152Z,37.79
2018-10-11T18:31:41.487Z,38.32
2018-10-11T18:34:09.805Z,37.75
2018-10-11T18:36:38.072Z,38.01
2018-10-11T18:39:11.017Z,37.56
2018-10-11T18:41:39.629Z,38.09
2018-10-11T18:44:08.282Z,38.66
2018-10-11T18:46:36.523Z,39.58
2018-10-11T18:49:04.920Z,40.03
2018-10-11T18:51:33.226Z,40.23
2018-10-11T18:54:01.512Z,39.69
2018-10-11T18:56:29.904Z,39.56
2018-10-11T18:58:58.180Z,39.80
2018-10-11T19:01:26.534Z,39.64
2018-10-11T19:03:55.072Z,40.18
2018-10-11T19:06:23.490Z,41.11
2018-10-11T19:08:51.808Z,41.65
2018-10-11T19:11:20.267Z,41.84
2018-10-11T19:13:48.766Z,40.80
2018-10-11T19:16:17.008Z,40.48
2018-10-11T19:18:45.355Z,42.13
2018-10-11T19:21:13.864Z,43.06
2018-10-11T19:23:42.124Z,42.71
2018-10-11T19:26:10.428Z,42.19
2018-10-11T19:28:38.755Z,42.86
2018-10-11T19:31:07.059Z,42.08
2018-10-11T19:33:35.445Z,42.38
2018-10-11T19:36:03.882Z,42.68
2018-10-11T19:38:32.248Z,41.98
2018-10-11T19:41:00.693Z,42.46
2018-10-11T19:43:28.941Z,42.08
2018-10-11T19:45:57.240Z,42.09
2018-10-11T19:48:25.547Z,42.10
2018-10-11T19:50:53.832Z,41.91
2018-10-11T19:53:22.223Z,41.02
2018-10-11T19:55:50.692Z,40.46
2018-10-11T19:58:19.051Z,40.64
2018-10-11T20:00:47.483Z,41.20
2018-10-11T20:03:15.985Z,40.77
2018-10-11T20:05:44.297Z,40.69
2018-10-11T20:08:12.805Z,41.16
2018-10-11T20:10:41.410Z,41.14
2018-10-11T20:13:09.716Z,41.31
2018-10-11T20:15:38.470Z,41.46
2018-10-11T20:18:06.869Z,41.73
2018-10-11T20:20:35.416Z,41.50
2018-10-11T20:23:03.795Z,41.23
2018-10-11T20:25:32.164Z,41.36
2018-10-11T20:28:00.453Z,41.90
2018-10-11T20:30:28.782Z,41.75
2018-10-11T20:32:57.226Z,42.58
2018-10-11T20:35:25.508Z,41.86
2018-10-11T20:37:54.034Z,42.78
2018-10-11T20:40:22.596Z,42.68
2018-10-11T20:42:51.150Z,43.66
2018-10-11T20:45:19.568Z,43.27
2018-10-11T20:47:47.919Z,43.70
2018-10-11T20:50:16.216Z,43.62
2018-10-11T20:52:45.557Z,43.70
2018-10-11T20:55:14.037Z,43.91
2018-10-11T20:57:42.445Z,44.41
2018-10-11T21:00:11.118Z,43.78
2018-10-11T21:02:39.611Z,43.82
2018-10-11T21:05:08.129Z,43.37
2018-10-11T21:07:36.652Z,43.42
2018-10-11T21:10:05.371Z,43.50
2018-10-11T21:12:33.660Z,44.05
2018-10-11T21:15:01.973Z,43.20
2018-10-11T21:17:30.271Z,43.29
2018-10-11T21:20:03.513Z,43.14
2018-10-11T21:22:31.772Z,43.91
2018-10-11T21:25:00.061Z,43.76
2018-10-11T21:27:28.423Z,43.74
2018-10-11T21:29:57.036Z,44.16
2018-10-11T21:32:25.432Z,43.18
2018-10-11T21:34:53.805Z,43.81
2018-10-11T21:37:22.266Z,44.39
2018-10-11T21:39:50.588Z,45.17
2018-10-11T21:42:19.728Z,45.09
2018-10-11T21:44:48.146Z,44.47
2018-10-11T21:47:16.484Z,44.87
2018-10-11T21:51:09.255Z,45.03
2018-10-11T21:53:37.633Z,45.23
2018-10-11T21:56:05.886Z,45.36
2018-10-11T21:58:34.200Z,46.20
2018-10-11T22:01:07.678Z,47.04
2018-10-11T22:03:35.998Z,46.10
2018-10-11T22:06:04.369Z,46.24
2018-10-11T22:08:32.777Z,45.89
2018-10-11T22:11:01.010Z,45.65
2018-10-11T22:13:29.430Z,45.11
2018-10-11T22:15:57.696Z,45.48
2018-10-11T22:18:26.014Z,45.06
2018-10-11T22:20:54.410Z,45.49
2018-10-11T22:23:22.962Z,45.23
2018-10-11T22:25:51.246Z,44.77
2018-10-11T22:28:19.645Z,46.02
2018-10-11T22:30:47.995Z,45.92
2018-10-11T22:33:16.335Z,45.80
2018-10-11T22:35:44.735Z,45.70
2018-10-11T22:38:13.096Z,45.89
2018-10-11T22:40:41.692Z,45.06
2018-10-11T22:43:10.134Z,45.31
2018-10-11T22:45:38.459Z,45.74
2018-10-11T22:48:06.815Z,45.77
2018-10-11T22:50:35.120Z,47.10
2018-10-11T22:53:03.507Z,46.41
2018-10-11T22:55:32.664Z,47.02
2018-10-11T22:58:01.513Z,45.30
2018-10-11T23:00:30.031Z,45.84
2018-10-11T23:02:58.304Z,45.56
2018-10-11T23:05:26.914Z,45.73
2018-10-11T23:07:55.290Z,45.69
2018-10-11T23:10:23.696Z,45.36
2018-10-11T23:12:52.039Z,44.89
2018-10-11T23:15:20.369Z,44.80
2018-10-11T23:17:48.770Z,45.14
2018-10-11T23:20:17.172Z,44.47
2018-10-11T23:22:45.497Z,44.75
2018-10-11T23:25:13.776Z,44.27
2018-10-11T23:27:42.301Z,46.90
2018-10-11T23:30:11.834Z,44.98
2018-10-11T23:32:40.999Z,45.63
2018-10-11T23:35:09.982Z,45.10
2018-10-11T23:37:38.411Z,45.21
2018-10-11T23:40:06.838Z,45.52
2018-10-11T23:42:35.220Z,45.73
2018-10-11T23:45:03.524Z,44.88
2018-10-11T23:47:31.848Z,45.37
2018-10-11T23:50:00.285Z,46.04
2018-10-11T23:52:28.752Z,46.35
2018-10-11T23:54:57.097Z,46.28
2018-10-11T23:57:25.422Z,46.99
2018-10-11T23:59:53.739Z,46.10
